Shiro, Texas
Current Conditions -  °F | °C
As of 7:53 AM on Wednesday 22 Oct 2014 (Local Time) from KUTS Reporting Station
Haze Haze  
Wind Chill: 57°   Ceiling: 200
Heat Index: 57°   Visibility: 4mi
Dew Point: 56°   Wind: 0mph
Humidity: 96%   Direction: NA
Pressure: 30.1"   Gusts: NA
Location:  30.61°N, 95.89°W
Report Text: KUTS 221253Z AUTO 00000KT 4SM BR OVC002 14/13 A3010 RMK AO2 SLP189 T01390133
Loading
Personal Weather Stations






























Interactive Weather Map New forecast layout! Learn more

10-Day Weather Forecast

Advertisements
Track Severe Weather on mobile